Terminal Aerodrome Forecast
Issued by NWS Wichita, KS

Home | Current Version | Previous Version | Graphics & Text | Print | Product List | Glossary On
Versions: 1 2 3 4 5 6 7 8 9 10 11 12 13 14 15
000
FTUS43 KICT 132300
TAFICT
TAF
KICT 132334Z 1400/1424 35027G36KT P6SM SCT009 OVC014
     FM140400 36023G34KT P6SM OVC012
     FM141000 35022G32KT 4SM -SN BKN009 OVC012
     FM141500 36025G36KT P6SM BKN020
     FM141900 36024G34KT P6SM SCT020 BKN035=

USA.gov is the U.S. government's official web portal to all federal, state and local government web resources and services.